Time;durP1;ratioP1;P1;durP2;ratioP2;P2;SDS_P1;SDS_P2;PMS_P1;PMS_P2;Temp;Humidity;BMP_temperature;BMP_pressure;BME280_temperature;BME280_humidity;BME280_pressure;Samples;Min_cycle;Max_cycle;Signal;HPM_P1;HPM_P2
2021/03/28 00:02:23;;;;;;;3.10;2.60;;;11.00;98.90;;;;;;6277233;28;20497;-62
2021/03/28 00:05:29;;;;;;;3.53;3.23;;;11.00;99.30;;;;;;6283995;28;20467;-61
2021/03/28 00:08:32;;;;;;;6.00;5.30;;;11.10;99.20;;;;;;6277361;28;20475;-62
2021/03/28 00:11:49;;;;;;;10.63;7.00;;;11.00;99.30;;;;;;6280607;28;21036;-62
2021/03/28 00:14:58;;;;;;;9.77;8.53;;;11.10;99.30;;;;;;6302093;28;20557;-62
2021/03/28 00:18:12;;;;;;;9.53;8.53;;;11.10;99.20;;;;;;6301680;28;20864;-62
2021/03/28 00:21:19;;;;;;;6.27;5.73;;;11.10;99.20;;;;;;6301771;28;20469;-62
2021/03/28 00:24:25;;;;;;;4.63;3.73;;;11.00;99.20;;;;;;6302124;28;20462;-61
2021/03/28 00:27:37;;;;;;;2.67;2.47;;;11.10;99.10;;;;;;6301398;28;20626;-61
2021/03/28 00:30:42;;;;;;;3.40;3.17;;;11.20;99.10;;;;;;6295280;28;20563;-62
2021/03/28 00:33:57;;;;;;;3.87;3.60;;;11.20;99.30;;;;;;6294357;28;20465;-62
2021/03/28 00:37:01;;;;;;;3.43;3.07;;;11.20;99.40;;;;;;6282489;28;20466;-62
2021/03/28 00:40:18;;;;;;;2.70;2.50;;;11.10;99.50;;;;;;6301203;28;20481;-62
2021/03/28 00:43:23;;;;;;;3.87;3.47;;;11.20;99.60;;;;;;6301090;28;20470;-62
2021/03/28 00:46:52;;;;;;;4.33;3.07;;;11.10;99.40;;;;;;6301563;28;20465;-62
2021/03/28 00:50:02;;;;;;;6.80;3.70;;;11.10;99.30;;;;;;6297649;28;20465;-61
2021/03/28 00:53:07;;;;;;;3.47;3.03;;;11.00;99.30;;;;;;6298424;28;20474;-61
2021/03/28 00:56:14;;;;;;;4.50;2.90;;;11.10;99.40;;;;;;6294208;28;20481;-61
2021/03/28 00:59:20;;;;;;;3.40;3.10;;;11.00;99.30;;;;;;6298404;28;20473;-62
2021/03/28 01:02:28;;;;;;;3.73;3.33;;;11.10;99.50;;;;;;6298164;28;20474;-61
2021/03/28 01:05:42;;;;;;;3.90;3.00;;;11.00;99.80;;;;;;6299476;28;20477;-61
2021/03/28 01:08:55;;;;;;;3.53;3.33;;;11.10;99.60;;;;;;6300179;28;20473;-61
2021/03/28 01:12:45;;;;;;;3.27;2.97;;;11.10;99.60;;;;;;6299548;28;20799;-61
2021/03/28 01:16:19;;;;;;;3.57;3.00;;;11.20;99.70;;;;;;6212718;28;20464;-61
2021/03/28 01:20:02;;;;;;;4.33;3.10;;;11.20;99.80;;;;;;6300338;28;20481;-61
2021/03/28 01:23:11;;;;;;;3.83;2.83;;;11.20;99.40;;;;;;6300073;28;20981;-61
2021/03/28 01:26:37;;;;;;;3.63;3.13;;;11.10;99.40;;;;;;6299939;28;20989;-61
2021/03/28 01:29:44;;;;;;;3.50;3.20;;;11.10;99.60;;;;;;6299953;28;20832;-61
2021/03/28 01:32:50;;;;;;;3.47;3.17;;;11.10;99.80;;;;;;6300110;28;20449;-62
2021/03/28 01:35:59;;;;;;;3.40;3.10;;;11.20;99.80;;;;;;6300272;28;20523;-61
2021/03/28 01:39:12;;;;;;;3.87;3.57;;;11.10;99.60;;;;;;6299897;28;20827;-61
2021/03/28 01:42:41;;;;;;;3.10;2.80;;;11.10;99.90;;;;;;6300213;28;20462;-61
2021/03/28 01:45:51;;;;;;;3.60;3.30;;;11.10;99.90;;;;;;6299865;28;20461;-61
2021/03/28 01:48:56;;;;;;;3.30;3.00;;;11.20;99.90;;;;;;6300050;28;20477;-61
2021/03/28 01:52:10;;;;;;;4.07;3.67;;;11.20;99.90;;;;;;6300543;28;20546;-61
2021/03/28 01:55:23;;;;;;;3.53;3.23;;;11.20;99.90;;;;;;6299653;28;20466;-61
2021/03/28 01:58:32;;;;;;;3.70;3.33;;;11.10;99.90;;;;;;6299745;28;20855;-61
2021/03/28 02:01:47;;;;;;;4.73;3.43;;;11.10;99.90;;;;;;6294950;28;20478;-61
2021/03/28 02:04:54;;;;;;;4.07;2.90;;;11.20;99.90;;;;;;6299443;28;20479;-61
2021/03/28 02:08:10;;;;;;;4.30;3.30;;;11.10;99.90;;;;;;6299361;28;20484;-61
2021/03/28 02:11:30;;;;;;;4.73;4.33;;;11.10;99.90;;;;;;6299505;28;20469;-61
2021/03/28 02:14:51;;;;;;;3.43;3.10;;;11.10;99.90;;;;;;6298804;28;21008;-61
2021/03/28 02:18:18;;;;;;;3.50;3.00;;;11.20;99.90;;;;;;6299385;28;20442;-61
2021/03/28 02:21:32;;;;;;;4.40;3.60;;;11.10;99.90;;;;;;6297079;28;20484;-61
2021/03/28 02:24:45;;;;;;;4.20;3.80;;;11.10;99.90;;;;;;6299203;28;20816;-61
2021/03/28 02:27:54;;;;;;;3.77;3.40;;;11.20;99.90;;;;;;6299023;28;20480;-61
2021/03/28 02:31:02;;;;;;;3.53;3.23;;;11.20;99.90;;;;;;6299508;28;20465;-61
2021/03/28 02:34:20;;;;;;;3.53;3.23;;;11.20;99.90;;;;;;6299130;28;20978;-61
2021/03/28 02:37:36;;;;;;;4.00;3.30;;;11.20;99.90;;;;;;6299826;28;20473;-61
2021/03/28 02:40:42;;;;;;;3.67;3.37;;;11.20;99.90;;;;;;6299356;28;20480;-61
2021/03/28 02:43:48;;;;;;;3.20;2.87;;;11.30;99.90;;;;;;6299313;28;20480;-61
2021/03/28 02:46:57;;;;;;;4.30;3.63;;;11.30;99.90;;;;;;6299092;28;20495;-60
2021/03/28 02:50:19;;;;;;;5.87;3.37;;;11.30;99.90;;;;;;6299053;28;20465;-60
2021/03/28 02:53:32;;;;;;;3.20;2.90;;;11.30;99.90;;;;;;6299031;28;20478;-60
2021/03/28 02:56:49;;;;;;;3.93;3.03;;;11.40;99.90;;;;;;6299433;28;20479;-60
2021/03/28 03:00:03;;;;;;;3.40;3.10;;;11.30;99.90;;;;;;6303937;28;20891;-61
2021/03/28 03:03:40;;;;;;;3.33;3.03;;;11.30;99.90;;;;;;6294279;28;20931;-61
2021/03/28 03:07:13;;;;;;;3.37;3.07;;;11.30;99.90;;;;;;6303532;28;20815;-60
2021/03/28 03:10:56;;;;;;;4.27;3.90;;;11.30;99.90;;;;;;6282711;28;20548;-60
2021/03/28 03:14:33;;;;;;;4.70;4.30;;;11.20;99.90;;;;;;6303320;28;20488;-61
2021/03/28 03:18:34;;;;;;;3.77;3.47;;;11.20;99.90;;;;;;6271501;28;20547;-60
2021/03/28 03:22:23;;;;;;;4.33;3.80;;;11.20;99.90;;;;;;6280046;28;20840;-61
2021/03/28 03:25:56;;;;;;;3.60;3.30;;;11.10;99.90;;;;;;6302785;28;20820;-62
2021/03/28 03:29:22;;;;;;;2.60;2.40;;;11.10;99.90;;;;;;6302773;28;20474;-62
2021/03/28 03:32:42;;;;;;;4.03;3.27;;;11.00;99.90;;;;;;6302747;28;20480;-61
2021/03/28 03:35:52;;;;;;;3.10;2.83;;;11.00;99.90;;;;;;6303085;28;20488;-62
2021/03/28 03:39:09;;;;;;;7.63;3.20;;;11.00;99.90;;;;;;6302904;28;20434;-62
2021/03/28 03:42:31;;;;;;;4.00;3.60;;;11.00;99.90;;;;;;6302842;28;20484;-62
2021/03/28 03:45:49;;;;;;;4.17;3.87;;;11.00;99.90;;;;;;6302888;28;20466;-62
2021/03/28 03:49:17;;;;;;;5.90;4.13;;;11.00;99.90;;;;;;6302901;28;20801;-60
2021/03/28 03:52:47;;;;;;;6.13;4.73;;;11.00;99.90;;;;;;6302544;28;20488;-60
2021/03/28 03:56:02;;;;;;;4.70;4.20;;;10.90;99.90;;;;;;6302094;28;20534;-60
2021/03/28 03:59:14;;;;;;;6.03;4.20;;;10.80;99.90;;;;;;6302638;28;20473;-60
2021/03/28 04:02:24;;;;;;;4.20;3.80;;;10.80;99.90;;;;;;6302617;28;20478;-60
2021/03/28 04:05:52;;;;;;;4.87;4.40;;;10.80;99.90;;;;;;6302363;28;20470;-62
2021/03/28 04:09:20;;;;;;;4.93;4.53;;;10.70;99.90;;;;;;6301690;28;20445;-62
2021/03/28 04:12:57;;;;;;;4.00;3.73;;;10.70;99.90;;;;;;6302180;28;20465;-62
2021/03/28 04:16:18;;;;;;;4.93;4.43;;;10.70;99.90;;;;;;6301875;28;20820;-62
2021/03/28 04:19:29;;;;;;;4.30;3.90;;;10.70;99.90;;;;;;6301855;28;20481;-62
2021/03/28 04:23:01;;;;;;;5.23;4.73;;;10.60;99.90;;;;;;6301807;28;20470;-62
2021/03/28 04:26:25;;;;;;;4.60;3.80;;;10.60;99.90;;;;;;6274483;28;20461;-62
2021/03/28 04:29:27;;;;;;;6.77;4.63;;;10.60;99.90;;;;;;6301580;28;20469;-62
2021/03/28 04:32:56;;;;;;;10.10;5.33;;;10.60;99.90;;;;;;6301567;28;20492;-62
2021/03/28 04:36:21;;;;;;;6.53;4.17;;;10.60;99.90;;;;;;6298896;28;20477;-62
2021/03/28 04:39:42;;;;;;;7.00;4.70;;;10.60;99.90;;;;;;6301335;28;20481;-63
2021/03/28 04:43:11;;;;;;;4.17;3.37;;;10.60;99.90;;;;;;6301227;28;20469;-63
2021/03/28 04:46:53;;;;;;;5.30;4.80;;;10.50;99.90;;;;;;6268529;28;20982;-62
2021/03/28 04:50:02;;;;;;;6.53;4.70;;;10.50;99.90;;;;;;6301871;28;20461;-62
2021/03/28 04:53:49;;;;;;;6.97;5.03;;;10.40;99.90;;;;;;6301138;28;20480;-63
2021/03/28 04:57:18;;;;;;;7.50;6.23;;;10.40;99.90;;;;;;6301130;28;20446;-63
2021/03/28 05:00:50;;;;;;;9.90;8.70;;;10.40;99.90;;;;;;6300849;28;20474;-60
2021/03/28 05:04:08;;;;;;;11.60;8.60;;;10.50;99.90;;;;;;6300644;28;20466;-62
2021/03/28 05:07:34;;;;;;;9.30;8.40;;;10.50;99.90;;;;;;6301501;28;20472;-62
2021/03/28 05:11:03;;;;;;;8.50;7.40;;;10.50;99.90;;;;;;6300201;28;20458;-62
2021/03/28 05:14:41;;;;;;;8.50;5.93;;;10.50;99.90;;;;;;6295715;28;20958;-62
2021/03/28 05:18:11;;;;;;;8.40;6.23;;;10.50;99.90;;;;;;6300501;28;20476;-62
2021/03/28 05:21:41;;;;;;;6.53;4.87;;;10.40;99.90;;;;;;6300561;28;20465;-62
2021/03/28 05:25:21;;;;;;;7.50;6.33;;;10.40;99.90;;;;;;6300192;28;20473;-60
2021/03/28 05:29:15;;;;;;;9.13;5.07;;;10.40;99.90;;;;;;6300164;28;21005;-60
2021/03/28 05:32:58;;;;;;;5.83;4.90;;;10.40;99.90;;;;;;6233387;28;20481;-60
2021/03/28 05:36:32;;;;;;;5.37;4.67;;;10.40;99.90;;;;;;6300071;28;20469;-60
2021/03/28 05:40:02;;;;;;;6.00;5.50;;;10.50;99.90;;;;;;6300390;28;20469;-60
2021/03/28 05:43:42;;;;;;;5.43;4.53;;;10.50;99.90;;;;;;6299980;28;20481;-60
2021/03/28 05:47:17;;;;;;;5.50;4.40;;;10.60;99.90;;;;;;6300588;28;20522;-60
2021/03/28 05:50:29;;;;;;;5.70;5.20;;;10.70;99.90;;;;;;6300049;28;20470;-61
2021/03/28 05:54:15;;;;;;;5.20;4.70;;;10.80;99.90;;;;;;6299364;28;21065;-61
2021/03/28 05:57:53;;;;;;;4.90;4.43;;;10.90;99.90;;;;;;6299668;28;20477;-61
2021/03/28 06:01:30;;;;;;;5.23;4.37;;;11.10;99.90;;;;;;6299850;28;20461;-61
2021/03/28 06:05:13;;;;;;;5.20;4.80;;;11.20;99.90;;;;;;6297417;28;20472;-61
2021/03/28 06:08:48;;;;;;;4.90;4.50;;;11.30;99.90;;;;;;6299491;28;20480;-61
2021/03/28 06:12:29;;;;;;;5.03;4.53;;;11.30;99.90;;;;;;6299395;28;20457;-61
2021/03/28 06:15:56;;;;;;;5.20;4.80;;;11.30;99.90;;;;;;6291182;28;20480;-61
2021/03/28 06:19:43;;;;;;;4.20;3.80;;;11.40;99.90;;;;;;6299662;28;20476;-61
2021/03/28 06:23:21;;;;;;;5.10;4.63;;;11.50;99.80;;;;;;6299755;28;20462;-61
2021/03/28 06:26:58;;;;;;;7.47;4.90;;;11.60;99.60;;;;;;6298936;28;20480;-61
2021/03/28 06:30:42;;;;;;;5.30;4.80;;;11.70;99.40;;;;;;6260921;28;20458;-62
2021/03/28 06:34:23;;;;;;;5.07;4.57;;;11.70;99.10;;;;;;6275677;28;20461;-60
2021/03/28 06:38:06;;;;;;;4.80;4.40;;;11.80;99.20;;;;;;6304442;28;20470;-61
2021/03/28 06:41:28;;;;;;;5.07;4.67;;;11.80;99.10;;;;;;6304041;28;20480;-62
2021/03/28 06:44:57;;;;;;;4.27;3.90;;;12.00;99.10;;;;;;6274395;28;20470;-62
2021/03/28 06:48:43;;;;;;;4.77;4.37;;;12.20;98.70;;;;;;6279388;28;20441;-62
2021/03/28 06:51:59;;;;;;;4.07;3.50;;;12.70;98.40;;;;;;6278864;28;20494;-62
2021/03/28 06:55:26;;;;;;;4.80;3.47;;;12.80;96.10;;;;;;6279122;28;20462;-62
2021/03/28 06:59:05;;;;;;;5.03;3.63;;;12.80;96.50;;;;;;6278945;28;20952;-62
2021/03/28 07:02:25;;;;;;;3.93;3.57;;;13.00;95.40;;;;;;6278417;28;20485;-62
2021/03/28 07:05:39;;;;;;;4.50;4.03;;;13.10;95.30;;;;;;6278867;28;20481;-62
2021/03/28 07:09:25;;;;;;;3.90;3.10;;;13.10;94.20;;;;;;6278572;28;20474;-62
2021/03/28 07:12:49;;;;;;;4.37;3.97;;;12.90;94.80;;;;;;6303282;28;20575;-62
2021/03/28 07:16:03;;;;;;;3.70;3.17;;;13.00;94.60;;;;;;6303298;28;20470;-61
2021/03/28 07:19:45;;;;;;;3.87;3.30;;;13.00;94.20;;;;;;6293710;28;20483;-61
2021/03/28 07:23:06;;;;;;;3.53;3.23;;;13.10;94.40;;;;;;6302999;28;20466;-62
2021/03/28 07:26:16;;;;;;;4.00;3.70;;;13.20;94.30;;;;;;6302787;28;20822;-62
2021/03/28 07:30:07;;;;;;;3.40;3.10;;;13.20;94.20;;;;;;6303436;28;20476;-62
2021/03/28 07:33:28;;;;;;;6.03;3.53;;;13.50;93.50;;;;;;6303091;28;20910;-62
2021/03/28 07:36:43;;;;;;;3.33;3.03;;;13.80;92.40;;;;;;6303179;28;20476;-62
2021/03/28 07:40:19;;;;;;;3.37;3.17;;;14.30;91.50;;;;;;6302880;28;20461;-62
2021/03/28 07:44:09;;;;;;;3.43;3.13;;;14.30;90.90;;;;;;6302135;28;20492;-62
2021/03/28 07:47:45;;;;;;;3.83;3.30;;;14.10;90.80;;;;;;6255556;28;20465;-61
2021/03/28 07:51:35;;;;;;;3.50;3.17;;;13.70;90.90;;;;;;6302592;28;20469;-61
2021/03/28 07:55:21;;;;;;;4.40;3.13;;;13.60;91.00;;;;;;6300035;28;20462;-61
2021/03/28 07:58:35;;;;;;;3.50;3.20;;;12.20;93.00;;;;;;6300448;28;20942;-61
2021/03/28 08:02:02;;;;;;;3.93;3.27;;;12.10;93.60;;;;;;6300124;28;20484;-61
2021/03/28 08:05:34;;;;;;;3.57;3.27;;;12.10;93.60;;;;;;6300241;28;20474;-61
2021/03/28 08:09:13;;;;;;;3.40;3.10;;;12.20;93.30;;;;;;6300142;28;20482;-61
2021/03/28 08:12:44;;;;;;;3.27;2.97;;;11.90;93.70;;;;;;6301743;28;20575;-62
2021/03/28 08:16:09;;;;;;;5.43;3.17;;;12.00;94.10;;;;;;6302644;28;20462;-61
2021/03/28 08:19:37;;;;;;;3.60;3.30;;;11.90;93.70;;;;;;6302228;28;20477;-61
2021/03/28 08:23:27;;;;;;;3.60;3.30;;;11.80;93.70;;;;;;6296855;28;20469;-61
2021/03/28 08:27:02;;;;;;;5.80;3.13;;;11.80;93.90;;;;;;6195027;28;20470;-61
2021/03/28 08:30:25;;;;;;;4.77;2.87;;;11.80;93.30;;;;;;6193476;28;20480;-61
2021/03/28 08:34:10;;;;;;;5.70;3.77;;;11.90;93.10;;;;;;6301829;28;20955;-62
2021/03/28 08:37:52;;;;;;;4.27;2.90;;;11.90;92.80;;;;;;6302005;28;20466;-61
2021/03/28 08:41:24;;;;;;;3.57;3.23;;;11.80;92.70;;;;;;6301270;28;20469;-61
2021/03/28 08:44:52;;;;;;;3.63;3.10;;;11.70;93.00;;;;;;6301137;28;20962;-61
2021/03/28 08:48:30;;;;;;;2.90;2.70;;;11.80;93.10;;;;;;6301283;28;20444;-62
2021/03/28 08:51:58;;;;;;;3.40;3.00;;;11.80;93.10;;;;;;6300619;28;20470;-61
2021/03/28 08:55:06;;;;;;;3.07;2.77;;;11.50;93.40;;;;;;6299743;28;20480;-61
2021/03/28 08:58:21;;;;;;;4.20;3.90;;;11.40;94.00;;;;;;6301099;28;20486;-61
2021/03/28 09:01:35;;;;;;;3.03;2.73;;;11.20;94.40;;;;;;6301198;28;20554;-61
2021/03/28 09:04:59;;;;;;;2.83;2.53;;;11.20;94.60;;;;;;6300616;28;20465;-61
2021/03/28 09:08:10;;;;;;;3.10;2.80;;;11.10;94.70;;;;;;6299980;28;20943;-61
2021/03/28 09:11:42;;;;;;;2.93;2.63;;;11.00;94.90;;;;;;6299011;28;20470;-61
2021/03/28 09:15:00;;;;;;;4.87;2.40;;;11.10;95.00;;;;;;6298709;28;20547;-61
2021/03/28 09:18:22;;;;;;;3.03;2.73;;;11.00;95.00;;;;;;6298883;28;20445;-62
2021/03/28 09:21:36;;;;;;;3.30;2.80;;;10.80;95.70;;;;;;6299222;28;20481;-62
2021/03/28 09:24:47;;;;;;;3.10;2.80;;;10.90;96.00;;;;;;6300283;28;20466;-61
2021/03/28 09:28:01;;;;;;;3.33;3.03;;;10.90;96.20;;;;;;6300584;28;20562;-61
2021/03/28 09:31:09;;;;;;;3.80;3.00;;;10.60;96.60;;;;;;6300482;28;20478;-61
2021/03/28 09:34:36;;;;;;;4.23;3.10;;;10.80;97.00;;;;;;6292883;28;20458;-62
2021/03/28 09:37:50;;;;;;;4.00;3.13;;;10.80;96.70;;;;;;6295057;28;20466;-61
2021/03/28 09:41:00;;;;;;;3.47;2.80;;;10.70;97.00;;;;;;6273384;28;20489;-61
2021/03/28 09:44:14;;;;;;;3.30;3.00;;;10.60;97.00;;;;;;6278258;28;20904;-61
2021/03/28 09:47:25;;;;;;;3.53;3.00;;;10.50;97.20;;;;;;6278594;28;20489;-61
2021/03/28 09:50:38;;;;;;;3.80;3.33;;;10.50;97.40;;;;;;6283532;28;20466;-61
2021/03/28 09:54:03;;;;;;;7.03;3.27;;;10.60;97.40;;;;;;6274302;28;20976;-61
2021/03/28 09:57:25;;;;;;;3.57;3.27;;;10.80;97.40;;;;;;6280315;28;20931;-61
2021/03/28 10:00:57;;;;;;;3.80;3.50;;;10.70;96.70;;;;;;6275106;28;20755;-61
2021/03/28 10:04:06;;;;;;;4.37;3.97;;;10.60;97.50;;;;;;6272257;28;20477;-61
2021/03/28 10:07:08;;;;;;;4.70;3.60;;;10.80;97.40;;;;;;6274019;28;20570;-62
2021/03/28 10:10:25;;;;;;;3.73;3.43;;;11.00;97.20;;;;;;6274281;28;20473;-61
2021/03/28 10:13:48;;;;;;;5.00;4.07;;;11.10;96.60;;;;;;6274481;28;20991;-61
2021/03/28 10:17:09;;;;;;;5.60;3.00;;;11.30;96.10;;;;;;6274289;28;20478;-61
2021/03/28 10:20:25;;;;;;;5.10;3.70;;;11.40;96.10;;;;;;6274352;28;20827;-61
2021/03/28 10:23:44;;;;;;;4.23;3.83;;;11.40;95.60;;;;;;6274062;28;21067;-61
2021/03/28 10:27:27;;;;;;;4.70;4.00;;;11.60;95.30;;;;;;6273798;28;20955;-61
2021/03/28 10:30:40;;;;;;;4.17;3.50;;;11.80;94.80;;;;;;6264411;28;20459;-61
2021/03/28 10:33:58;;;;;;;2.87;2.67;;;12.00;94.50;;;;;;6274192;28;20483;-62
2021/03/28 10:37:22;;;;;;;5.33;3.43;;;12.10;94.10;;;;;;6274049;28;20478;-61
2021/03/28 10:40:43;;;;;;;4.40;3.73;;;11.90;93.60;;;;;;6279326;28;20470;-60
2021/03/28 10:44:10;;;;;;;3.30;3.00;;;12.10;93.80;;;;;;6280278;28;20474;-60
2021/03/28 10:47:50;;;;;;;3.73;3.43;;;12.50;93.40;;;;;;6271774;28;20475;-62
2021/03/28 10:51:27;;;;;;;3.83;3.53;;;13.60;91.60;;;;;;6233447;28;20474;-61
2021/03/28 10:55:04;;;;;;;3.60;3.30;;;14.30;87.60;;;;;;6245813;28;20466;-62
2021/03/28 10:58:57;;;;;;;3.40;3.10;;;13.80;88.90;;;;;;6233472;28;20475;-61
2021/03/28 11:02:41;;;;;;;4.17;3.20;;;14.20;88.50;;;;;;6248922;28;20820;-61
2021/03/28 11:06:14;;;;;;;4.60;3.20;;;15.10;83.40;;;;;;6248996;28;20463;-62
2021/03/28 11:09:48;;;;;;;3.73;2.53;;;15.60;77.80;;;;;;6256977;28;20473;-62
2021/03/28 11:13:09;;;;;;;3.63;2.80;;;16.20;73.80;;;;;;6273685;28;20523;-61
2021/03/28 11:16:24;;;;;;;3.17;2.50;;;16.50;70.60;;;;;;6271644;28;20998;-61
2021/03/28 11:19:57;;;;;;;2.97;2.77;;;16.50;69.40;;;;;;6276113;28;20496;-61
2021/03/28 11:23:42;;;;;;;4.20;2.93;;;16.80;68.10;;;;;;6279824;28;20971;-61
2021/03/28 11:27:12;;;;;;;3.43;3.13;;;16.80;67.00;;;;;;6252038;28;20478;-60
2021/03/28 11:30:27;;;;;;;5.30;2.77;;;16.20;67.70;;;;;;6277604;28;20962;-61
2021/03/28 11:33:34;;;;;;;4.07;2.47;;;15.50;69.60;;;;;;6273502;28;20466;-61
2021/03/28 11:36:54;;;;;;;3.83;3.07;;;15.10;71.50;;;;;;6277786;28;20474;-61
2021/03/28 11:40:28;;;;;;;4.57;2.80;;;14.60;73.80;;;;;;6277708;28;20466;-61
2021/03/28 11:43:37;;;;;;;4.47;3.07;;;14.40;76.00;;;;;;6280151;28;20655;-61
2021/03/28 11:47:03;;;;;;;2.90;2.47;;;14.60;75.90;;;;;;6296760;28;20811;-62
2021/03/28 11:50:23;;;;;;;5.97;3.67;;;14.80;75.80;;;;;;6291188;28;20956;-61
2021/03/28 11:53:35;;;;;;;4.17;3.50;;;14.60;76.30;;;;;;6289536;28;20465;-61
2021/03/28 11:56:43;;;;;;;4.10;3.40;;;14.60;76.90;;;;;;6288058;28;20553;-61
2021/03/28 11:59:51;;;;;;;7.30;3.77;;;14.60;76.90;;;;;;6287940;28;20477;-61
2021/03/28 12:03:33;;;;;;;4.23;3.83;;;14.50;78.20;;;;;;6276894;28;20990;-62
2021/03/28 12:06:54;;;;;;;4.00;3.60;;;14.10;78.90;;;;;;6277340;28;20813;-61
2021/03/28 12:10:16;;;;;;;5.70;3.80;;;13.80;80.60;;;;;;6276881;28;20875;-61
2021/03/28 12:13:34;;;;;;;3.97;3.57;;;13.70;81.10;;;;;;6277006;28;20992;-61
2021/03/28 12:17:15;;;;;;;4.40;3.97;;;13.70;81.30;;;;;;6276911;28;20819;-62
2021/03/28 12:20:25;;;;;;;5.07;3.90;;;13.50;82.40;;;;;;6276813;28;20874;-62
2021/03/28 12:23:34;;;;;;;4.83;3.60;;;13.60;83.50;;;;;;6276873;28;20478;-63
2021/03/28 12:26:55;;;;;;;4.73;4.33;;;13.90;83.40;;;;;;6276686;28;20528;-63
2021/03/28 12:29:57;;;;;;;4.07;3.73;;;14.10;82.40;;;;;;6276337;28;20474;-63
2021/03/28 12:33:07;;;;;;;5.30;4.57;;;14.10;81.50;;;;;;6276820;28;20502;-65
2021/03/28 12:36:11;;;;;;;6.00;4.00;;;13.90;82.10;;;;;;6276393;28;20463;-65
2021/03/28 12:39:18;;;;;;;4.73;4.23;;;13.50;83.70;;;;;;6271972;28;20473;-66
2021/03/28 12:42:24;;;;;;;3.57;3.27;;;13.70;83.20;;;;;;6276809;28;20490;-65
2021/03/28 12:45:34;;;;;;;4.27;3.83;;;14.10;82.50;;;;;;6297383;28;20473;-66
2021/03/28 12:48:38;;;;;;;4.70;4.13;;;14.60;79.40;;;;;;6293070;28;20473;-66
2021/03/28 12:51:43;;;;;;;11.03;3.50;;;14.60;78.60;;;;;;6276346;28;20925;-64
2021/03/28 12:55:32;;;;;;;3.27;2.97;;;14.80;78.70;;;;;;6276324;28;20466;-66
2021/03/28 12:58:53;;;;;;;7.20;3.90;;;14.90;76.90;;;;;;6276340;28;20466;-65
2021/03/28 13:02:10;;;;;;;6.17;3.90;;;15.10;77.40;;;;;;6275984;28;20466;-66
2021/03/28 13:05:23;;;;;;;3.70;3.10;;;15.60;76.10;;;;;;6275863;28;20469;-65
2021/03/28 13:08:26;;;;;;;4.30;3.90;;;15.90;73.60;;;;;;6275973;28;20948;-67
2021/03/28 13:11:43;;;;;;;4.00;3.70;;;16.20;72.50;;;;;;6275700;28;20470;-66
2021/03/28 13:14:49;;;;;;;3.80;3.50;;;15.90;71.70;;;;;;6276212;28;20530;-65
2021/03/28 13:18:06;;;;;;;4.33;2.80;;;15.50;73.00;;;;;;6276100;28;21108;-66
2021/03/28 13:21:12;;;;;;;4.40;4.00;;;15.30;74.30;;;;;;6252119;28;20459;-66
2021/03/28 13:24:16;;;;;;;3.27;3.03;;;15.70;72.70;;;;;;6250718;28;20541;-71
2021/03/28 13:27:21;;;;;;;5.27;4.77;;;15.50;72.30;;;;;;6250663;28;20474;-65
2021/03/28 13:30:29;;;;;;;4.90;4.40;;;15.40;73.10;;;;;;6250234;28;20479;-65
2021/03/28 13:33:37;;;;;;;3.80;3.20;;;15.50;72.60;;;;;;6250547;28;20949;-65
2021/03/28 13:36:43;;;;;;;3.80;3.40;;;15.40;72.80;;;;;;6250416;28;20522;-65
2021/03/28 13:40:00;;;;;;;4.13;3.83;;;15.10;72.80;;;;;;6250001;28;20565;-65
2021/03/28 13:43:13;;;;;;;4.17;3.70;;;14.50;73.90;;;;;;6242569;28;20471;-66
2021/03/28 13:46:17;;;;;;;3.67;3.20;;;14.70;74.60;;;;;;6274698;28;20975;-64
2021/03/28 13:49:39;;;;;;;5.37;3.50;;;15.10;72.90;;;;;;6260695;28;20478;-65
2021/03/28 13:52:43;;;;;;;8.60;3.60;;;14.90;73.10;;;;;;6250088;28;20476;-65
2021/03/28 13:55:48;;;;;;;3.93;3.40;;;15.00;72.10;;;;;;6249685;28;20486;-65
2021/03/28 13:59:08;;;;;;;7.93;3.87;;;15.00;72.70;;;;;;6249957;28;20463;-65
2021/03/28 14:02:22;;;;;;;3.70;3.13;;;15.20;71.60;;;;;;6250047;28;20495;-64
2021/03/28 14:05:32;;;;;;;3.80;3.37;;;15.10;71.60;;;;;;6249865;28;20474;-65
2021/03/28 14:08:34;;;;;;;3.47;3.17;;;15.00;71.60;;;;;;6249529;28;20474;-65
2021/03/28 14:11:50;;;;;;;4.53;3.27;;;14.80;71.60;;;;;;6254634;28;20816;-65
2021/03/28 14:15:21;;;;;;;6.00;4.50;;;14.70;72.20;;;;;;6271738;28;20501;-64
2021/03/28 14:18:30;;;;;;;4.83;3.30;;;14.60;72.50;;;;;;6280097;28;20570;-65
2021/03/28 14:21:34;;;;;;;4.13;3.30;;;14.50;72.10;;;;;;6259561;28;20487;-65
2021/03/28 14:24:37;;;;;;;7.67;3.67;;;14.20;73.00;;;;;;6268415;28;20968;-65
2021/03/28 14:27:42;;;;;;;3.23;2.93;;;14.20;72.80;;;;;;6274297;28;20458;-65
2021/03/28 14:30:45;;;;;;;3.63;3.33;;;14.20;73.10;;;;;;6274732;28;20467;-65
2021/03/28 14:34:08;;;;;;;3.60;3.33;;;14.00;72.80;;;;;;6272517;28;20492;-66
2021/03/28 14:37:47;;;;;;;3.93;3.60;;;13.70;73.50;;;;;;6238758;28;20555;-67
2021/03/28 14:41:23;;;;;;;3.43;3.10;;;13.60;73.80;;;;;;6248585;28;20987;-68
2021/03/28 14:44:49;;;;;;;6.27;2.97;;;13.70;74.10;;;;;;6262498;28;20469;-69
2021/03/28 14:48:24;;;;;;;3.50;2.83;;;13.70;73.60;;;;;;6296225;28;20449;-66
2021/03/28 14:51:32;;;;;;;3.37;2.77;;;13.90;74.00;;;;;;6285258;28;20488;-66
2021/03/28 14:54:38;;;;;;;2.77;2.57;;;14.00;72.90;;;;;;6301243;28;20530;-67
2021/03/28 14:57:45;;;;;;;3.90;2.87;;;14.10;72.60;;;;;;6300489;28;20599;-67
2021/03/28 15:00:53;;;;;;;4.20;3.23;;;14.30;71.90;;;;;;6300143;28;20545;-67
2021/03/28 15:04:09;;;;;;;4.40;2.50;;;14.20;71.60;;;;;;6303513;28;20469;-67
2021/03/28 15:07:47;;;;;;;3.90;3.50;;;14.20;72.00;;;;;;6303619;28;20925;-67
2021/03/28 15:10:56;;;;;;;3.07;2.50;;;14.10;72.30;;;;;;6303394;28;20572;-67
2021/03/28 15:14:01;;;;;;;2.57;2.37;;;14.10;71.50;;;;;;6303350;28;20993;-67
2021/03/28 15:17:08;;;;;;;3.00;2.47;;;14.00;72.50;;;;;;6302860;28;20472;-67
2021/03/28 15:20:35;;;;;;;5.70;3.50;;;14.10;71.80;;;;;;6303450;28;20552;-67
2021/03/28 15:23:47;;;;;;;3.13;2.37;;;14.20;71.20;;;;;;6299517;28;20480;-67
2021/03/28 15:27:24;;;;;;;4.23;2.80;;;14.20;71.10;;;;;;6302986;28;20513;-66
2021/03/28 15:30:31;;;;;;;2.57;2.37;;;14.20;70.50;;;;;;6303107;28;20472;-66
2021/03/28 15:33:53;;;;;;;5.87;2.77;;;14.30;71.00;;;;;;6302878;28;20469;-67
2021/03/28 15:37:12;;;;;;;2.67;2.47;;;14.20;69.90;;;;;;6302862;28;20466;-67
2021/03/28 15:40:47;;;;;;;2.93;2.60;;;14.10;70.70;;;;;;6302817;28;20473;-66
2021/03/28 15:44:33;;;;;;;2.93;2.73;;;14.00;70.80;;;;;;6303201;28;20469;-67
2021/03/28 15:48:03;;;;;;;4.00;3.00;;;14.00;70.80;;;;;;6302785;28;20531;-66
2021/03/28 15:51:22;;;;;;;3.63;2.93;;;13.60;71.20;;;;;;6264098;28;20465;-66
2021/03/28 15:54:39;;;;;;;2.43;2.23;;;13.40;72.30;;;;;;6277127;28;20848;-66
2021/03/28 15:58:38;;;;;;;3.83;3.43;;;13.50;72.10;;;;;;6277014;28;20467;-66
2021/03/28 16:02:16;;;;;;;2.60;2.40;;;13.40;71.90;;;;;;6278550;28;20462;-67
2021/03/28 16:05:31;;;;;;;3.23;2.93;;;13.50;72.10;;;;;;6279006;28;20466;-67
2021/03/28 16:09:04;;;;;;;2.90;2.60;;;13.30;71.70;;;;;;6279730;28;20536;-66
2021/03/28 16:12:26;;;;;;;3.83;2.70;;;12.90;72.70;;;;;;6279165;28;20458;-67
2021/03/28 16:15:42;;;;;;;2.60;2.40;;;12.80;73.30;;;;;;6279696;28;20595;-66
2021/03/28 16:19:19;;;;;;;3.30;2.50;;;12.90;73.80;;;;;;6278889;28;20462;-68
2021/03/28 16:22:42;;;;;;;4.53;2.90;;;12.90;73.70;;;;;;6275434;28;20520;-66
2021/03/28 16:26:05;;;;;;;4.93;2.63;;;12.80;74.10;;;;;;6277208;28;20455;-66
2021/03/28 16:29:32;;;;;;;3.30;2.70;;;12.60;74.20;;;;;;6276810;28;20934;-64
2021/03/28 16:32:59;;;;;;;6.70;3.07;;;12.50;74.60;;;;;;6276882;28;20494;-64
2021/03/28 16:36:18;;;;;;;3.63;3.00;;;12.60;75.00;;;;;;6276598;28;20569;-64
2021/03/28 16:39:23;;;;;;;4.73;3.97;;;12.60;74.80;;;;;;6276746;28;20557;-65
2021/03/28 16:42:30;;;;;;;4.37;3.17;;;12.60;74.60;;;;;;6276470;28;20502;-66
2021/03/28 16:45:42;;;;;;;3.33;3.03;;;12.60;74.40;;;;;;6298155;28;20470;-64
2021/03/28 16:48:50;;;;;;;2.90;2.70;;;12.50;74.40;;;;;;6295826;28;20549;-66
2021/03/28 16:52:01;;;;;;;3.80;3.07;;;12.50;74.70;;;;;;6294247;28;20970;-65
2021/03/28 16:55:16;;;;;;;5.13;3.57;;;12.40;74.70;;;;;;6287283;28;20473;-65
2021/03/28 16:58:36;;;;;;;3.57;3.23;;;12.30;75.00;;;;;;6301029;28;20615;-64
2021/03/28 17:01:41;;;;;;;4.23;3.83;;;12.20;75.30;;;;;;6301428;28;20795;-65
2021/03/28 17:04:53;;;;;;;3.30;3.00;;;12.20;75.50;;;;;;6301771;28;20453;-65
2021/03/28 17:08:01;;;;;;;2.80;2.60;;;12.10;75.60;;;;;;6300975;28;21037;-66
2021/03/28 17:11:39;;;;;;;3.47;3.17;;;12.10;75.70;;;;;;6300799;28;20541;-67
2021/03/28 17:15:23;;;;;;;3.33;3.00;;;12.00;76.30;;;;;;6282232;28;20466;-65
2021/03/28 17:18:39;;;;;;;4.03;3.33;;;11.80;76.40;;;;;;6255338;28;20765;-65
2021/03/28 17:21:45;;;;;;;3.23;3.03;;;11.80;76.40;;;;;;6300166;28;20484;-64
2021/03/28 17:25:16;;;;;;;7.10;3.23;;;11.70;77.40;;;;;;6300766;28;20454;-65
2021/03/28 17:28:31;;;;;;;5.00;3.47;;;11.60;77.80;;;;;;6300134;28;20485;-65